createdAt,value
2019-01-06T00:00:54.374Z,2.20
2019-01-06T00:03:45.647Z,3.13
2019-01-06T00:06:42.718Z,2.93
2019-01-06T00:09:33.946Z,2.87
2019-01-06T00:12:24.814Z,2.83
2019-01-06T00:15:22.030Z,2.73
2019-01-06T00:18:10.366Z,2.47
2019-01-06T00:21:04.242Z,2.80
2019-01-06T00:23:51.256Z,2.97
2019-01-06T00:26:35.174Z,2.33
2019-01-06T00:29:32.522Z,2.40
2019-01-06T00:32:20.834Z,2.60
2019-01-06T00:35:05.566Z,3.13
2019-01-06T00:37:52.367Z,3.00
2019-01-06T00:40:57.249Z,2.87
2019-01-06T00:43:54.755Z,2.90
2019-01-06T00:46:55.106Z,2.90
2019-01-06T00:49:42.206Z,3.00
2019-01-06T00:52:40.629Z,3.07
2019-01-06T00:55:37.994Z,2.73
2019-01-06T00:58:44.185Z,3.00
2019-01-06T01:01:32.526Z,2.67
2019-01-06T01:04:20.909Z,2.40
2019-01-06T01:07:12.049Z,3.30
2019-01-06T01:09:58.934Z,3.50
2019-01-06T01:12:47.114Z,2.87
2019-01-06T01:15:34.066Z,3.70
2019-01-06T01:18:28.693Z,3.40
2019-01-06T01:21:17.001Z,3.40
2019-01-06T01:24:17.586Z,3.37
2019-01-06T01:27:14.661Z,2.83
2019-01-06T01:30:03.011Z,2.67
2019-01-06T01:32:49.513Z,3.10
2019-01-06T01:35:43.837Z,3.03
2019-01-06T01:38:30.949Z,2.17
2019-01-06T01:41:34.660Z,2.10
2019-01-06T01:44:31.785Z,2.30
2019-01-06T01:47:28.756Z,2.30
2019-01-06T01:50:18.067Z,2.93
2019-01-06T01:53:21.587Z,2.93
2019-01-06T01:56:09.932Z,3.27
2019-01-06T01:59:00.976Z,3.07
2019-01-06T02:01:52.209Z,3.70
2019-01-06T02:04:46.113Z,3.23
2019-01-06T02:07:52.675Z,3.50
2019-01-06T02:10:44.700Z,3.73
2019-01-06T02:13:31.679Z,3.17
2019-01-06T02:16:18.868Z,3.27
2019-01-06T02:19:05.756Z,3.23
2019-01-06T02:22:00.009Z,3.60
2019-01-06T02:24:47.112Z,3.73
2019-01-06T02:27:38.420Z,2.97
2019-01-06T02:30:30.281Z,3.20
2019-01-06T02:33:21.241Z,3.40
2019-01-06T02:36:21.939Z,3.90
2019-01-06T02:39:13.169Z,2.70
2019-01-06T02:42:00.412Z,3.07
2019-01-06T02:44:47.025Z,3.23
2019-01-06T02:47:44.185Z,3.70
2019-01-06T02:50:32.548Z,3.33
2019-01-06T02:53:20.868Z,3.30
2019-01-06T02:56:08.188Z,2.40
2019-01-06T02:58:55.368Z,2.30
2019-01-06T03:02:02.083Z,2.00
2019-01-06T03:05:02.521Z,2.80
2019-01-06T03:07:50.848Z,2.50
2019-01-06T03:10:44.791Z,2.60
2019-01-06T03:13:33.112Z,1.80
2019-01-06T03:16:19.621Z,2.03
2019-01-06T03:19:06.628Z,2.07
2019-01-06T03:21:57.775Z,2.27
2019-01-06T03:24:48.883Z,1.97
2019-01-06T03:27:35.639Z,1.97
2019-01-06T03:30:36.204Z,2.30
2019-01-06T03:33:23.424Z,2.30
2019-01-06T03:36:10.647Z,2.00
2019-01-06T03:39:05.271Z,2.40
2019-01-06T03:41:52.555Z,2.30
2019-01-06T03:44:52.923Z,2.30
2019-01-06T03:47:47.522Z,2.23
2019-01-06T03:50:56.707Z,2.23
2019-01-06T03:53:51.811Z,2.10
2019-01-06T03:56:46.111Z,2.40
2019-01-06T03:59:50.163Z,2.50
2019-01-06T04:02:37.259Z,2.70
2019-01-06T04:05:24.095Z,2.90
2019-01-06T04:08:11.414Z,2.87
2019-01-06T04:11:00.795Z,2.90
2019-01-06T04:13:54.703Z,3.03
2019-01-06T04:16:45.121Z,3.07
2019-01-06T04:19:29.033Z,3.70
2019-01-06T04:22:18.154Z,3.10
2019-01-06T04:25:06.795Z,3.13
2019-01-06T04:28:11.374Z,3.10
2019-01-06T04:31:17.867Z,3.03
2019-01-06T04:34:06.240Z,3.17
2019-01-06T04:37:07.926Z,3.90
2019-01-06T04:39:59.130Z,3.50
2019-01-06T04:42:51.059Z,3.20
2019-01-06T04:45:39.391Z,3.63
2019-01-06T04:48:45.736Z,3.10
2019-01-06T04:51:36.719Z,3.03
2019-01-06T04:54:25.031Z,3.00
2019-01-06T04:57:05.694Z,3.17
2019-01-06T04:59:52.502Z,3.20
2019-01-06T05:02:45.585Z,3.17
2019-01-06T05:05:39.946Z,3.33
2019-01-06T05:08:26.758Z,3.27
2019-01-06T05:11:20.991Z,3.47
2019-01-06T05:14:18.181Z,3.40
2019-01-06T05:17:05.241Z,3.17
2019-01-06T05:19:59.486Z,2.70
2019-01-06T05:23:05.934Z,2.70
2019-01-06T05:25:54.222Z,2.47
2019-01-06T05:28:41.294Z,2.83
2019-01-06T05:31:29.593Z,4.10
2019-01-06T05:34:13.499Z,6.10
2019-01-06T05:37:04.141Z,6.00
2019-01-06T05:39:58.194Z,4.00
2019-01-06T05:42:38.732Z,3.10
2019-01-06T05:45:26.442Z,3.97
2019-01-06T05:48:09.609Z,3.80
2019-01-06T05:51:16.358Z,3.60
2019-01-06T05:54:03.601Z,3.27
2019-01-06T05:56:53.940Z,2.97
2019-01-06T06:00:00.742Z,2.60
2019-01-06T06:02:43.957Z,3.00
2019-01-06T06:05:35.005Z,2.83
2019-01-06T06:08:16.442Z,4.97
2019-01-06T06:11:09.639Z,4.40
2019-01-06T06:13:56.729Z,3.93
2019-01-06T06:16:43.672Z,3.93
2019-01-06T06:19:46.788Z,3.37
2019-01-06T06:22:40.500Z,4.10
2019-01-06T06:25:30.813Z,4.40
2019-01-06T06:28:17.864Z,3.63
2019-01-06T06:31:06.200Z,4.00
2019-01-06T06:34:00.220Z,4.70
2019-01-06T06:36:47.752Z,5.27
2019-01-06T06:39:30.728Z,4.60
2019-01-06T06:42:17.904Z,7.47
2019-01-06T06:44:58.227Z,4.87
2019-01-06T06:47:38.555Z,5.20
2019-01-06T06:50:24.068Z,6.00
2019-01-06T06:53:12.364Z,5.40
2019-01-06T06:55:59.162Z,4.70
2019-01-06T06:58:59.520Z,6.70
2019-01-06T07:02:16.427Z,6.70
2019-01-06T07:04:57.963Z,6.80
2019-01-06T07:08:01.440Z,6.27
2019-01-06T07:10:48.812Z,5.50
2019-01-06T07:13:37.439Z,5.47
2019-01-06T07:17:01.869Z,5.17
2019-01-06T07:19:56.255Z,6.17
2019-01-06T07:22:59.667Z,8.63
2019-01-06T07:25:51.307Z,6.63
2019-01-06T07:28:42.543Z,6.60
2019-01-06T07:31:29.575Z,4.10
2019-01-06T07:34:25.067Z,4.33
2019-01-06T07:37:20.092Z,9.20
2019-01-06T07:40:20.407Z,9.53
2019-01-06T07:42:59.231Z,5.53
2019-01-06T07:46:14.739Z,3.47
2019-01-06T07:49:01.881Z,6.47
2019-01-06T07:51:38.895Z,7.33
2019-01-06T07:54:24.532Z,4.33
2019-01-06T07:57:15.539Z,3.70
2019-01-06T08:00:16.120Z,3.83
2019-01-06T08:03:08.659Z,4.63
2019-01-06T08:05:58.167Z,3.80
2019-01-06T08:08:56.527Z,3.77
2019-01-06T08:11:38.992Z,4.63
2019-01-06T08:14:27.983Z,4.60
2019-01-06T08:17:15.171Z,4.17
2019-01-06T08:20:21.802Z,3.83
2019-01-06T08:23:09.138Z,3.90
2019-01-06T08:25:56.338Z,4.00
2019-01-06T08:28:43.340Z,3.90
2019-01-06T08:31:31.798Z,3.73
2019-01-06T08:34:26.099Z,4.10
2019-01-06T08:37:14.444Z,4.37
2019-01-06T08:40:09.058Z,4.30
2019-01-06T08:43:09.555Z,4.70
2019-01-06T08:45:56.415Z,4.73
2019-01-06T08:48:43.403Z,4.83
2019-01-06T08:51:34.706Z,3.90
2019-01-06T08:54:20.830Z,3.57
2019-01-06T08:57:07.678Z,3.80
2019-01-06T09:00:01.934Z,3.63
2019-01-06T09:02:48.858Z,3.40
2019-01-06T09:05:36.970Z,2.63
2019-01-06T09:08:24.350Z,2.80
2019-01-06T09:11:11.414Z,3.00
2019-01-06T09:13:55.906Z,3.17
2019-01-06T09:16:42.682Z,2.67
2019-01-06T09:19:50.276Z,2.53
2019-01-06T09:22:32.470Z,2.90
2019-01-06T09:25:19.379Z,3.80
2019-01-06T09:28:06.361Z,2.33
2019-01-06T09:31:03.742Z,2.50
2019-01-06T09:33:51.001Z,2.33
2019-01-06T09:36:57.697Z,2.30
2019-01-06T09:40:01.389Z,3.00
2019-01-06T09:43:04.797Z,3.23
2019-01-06T09:46:04.625Z,2.87
2019-01-06T09:48:51.625Z,3.10
2019-01-06T09:51:38.826Z,2.60
2019-01-06T09:54:33.396Z,2.63
2019-01-06T09:57:20.701Z,2.23
2019-01-06T10:00:07.884Z,2.63
2019-01-06T10:03:08.221Z,3.90
2019-01-06T10:05:56.358Z,4.70
2019-01-06T10:08:43.529Z,4.00
2019-01-06T10:11:31.216Z,2.93
2019-01-06T10:14:19.542Z,3.00
2019-01-06T10:17:06.643Z,4.00
2019-01-06T10:20:06.813Z,4.63
2019-01-06T10:22:52.796Z,3.30
2019-01-06T10:25:39.817Z,3.47
2019-01-06T10:28:26.813Z,3.03
2019-01-06T10:31:27.255Z,3.53
2019-01-06T10:34:18.530Z,3.73
2019-01-06T10:37:15.468Z,3.47
2019-01-06T10:40:10.124Z,3.03
2019-01-06T10:42:58.477Z,3.50
2019-01-06T10:45:59.008Z,3.10
2019-01-06T10:49:02.168Z,3.87
2019-01-06T10:51:54.852Z,3.20
2019-01-06T10:54:55.296Z,3.70
2019-01-06T10:57:53.504Z,2.90
2019-01-06T11:00:54.038Z,3.70
2019-01-06T11:03:45.380Z,3.70
2019-01-06T11:06:42.536Z,2.93
2019-01-06T11:09:46.223Z,2.97
2019-01-06T11:12:32.883Z,3.40
2019-01-06T11:15:29.908Z,3.30
2019-01-06T11:18:21.136Z,3.40
2019-01-06T11:21:21.719Z,2.87
2019-01-06T11:24:09.227Z,3.37
2019-01-06T11:27:03.603Z,3.40
2019-01-06T11:29:50.716Z,3.87
2019-01-06T11:32:46.923Z,2.83
2019-01-06T11:35:38.307Z,2.93
2019-01-06T11:38:26.615Z,3.53
2019-01-06T11:41:16.621Z,3.70
2019-01-06T11:44:04.920Z,3.60
2019-01-06T11:46:53.259Z,3.77
2019-01-06T11:49:40.217Z,5.00
2019-01-06T11:52:26.014Z,4.33
2019-01-06T11:55:17.025Z,4.07
2019-01-06T11:58:08.169Z,4.57
2019-01-06T12:00:59.313Z,4.97
2019-01-06T12:03:47.656Z,5.10
2019-01-06T12:06:35.953Z,5.50
2019-01-06T12:09:29.648Z,4.73
2019-01-06T12:12:22.632Z,3.47
2019-01-06T12:15:25.900Z,4.47
2019-01-06T12:18:12.953Z,3.87
2019-01-06T12:21:04.164Z,3.90
2019-01-06T12:23:57.869Z,3.47
2019-01-06T12:26:44.676Z,4.13
2019-01-06T12:29:27.686Z,3.90
2019-01-06T12:32:14.272Z,3.53
2019-01-06T12:34:58.848Z,5.10
2019-01-06T12:37:42.240Z,5.07
2019-01-06T12:40:24.560Z,5.33
2019-01-06T12:43:11.668Z,5.43
2019-01-06T12:46:02.608Z,5.00
2019-01-06T12:48:53.557Z,4.50
2019-01-06T12:51:47.953Z,4.20
2019-01-06T12:54:42.896Z,4.37
2019-01-06T12:57:31.236Z,3.87
2019-01-06T13:00:18.348Z,3.67
2019-01-06T13:03:21.471Z,4.50
2019-01-06T13:06:08.500Z,4.77
2019-01-06T13:09:06.148Z,5.00
2019-01-06T13:11:57.739Z,4.13
2019-01-06T13:14:52.345Z,4.27
2019-01-06T13:17:49.040Z,3.87
2019-01-06T13:20:38.628Z,3.53
2019-01-06T13:23:25.643Z,3.67
2019-01-06T13:26:12.979Z,3.50
2019-01-06T13:29:01.396Z,5.17
2019-01-06T13:31:55.755Z,3.63
2019-01-06T13:34:57.703Z,5.10
2019-01-06T13:37:44.787Z,4.17
2019-01-06T13:40:39.223Z,5.00
2019-01-06T13:43:34.795Z,4.37
2019-01-06T13:46:38.951Z,3.93
2019-01-06T13:49:27.287Z,4.60
2019-01-06T13:52:21.410Z,4.13
2019-01-06T13:55:18.484Z,4.13
2019-01-06T13:58:24.970Z,4.93
2019-01-06T14:01:16.286Z,5.37
2019-01-06T14:04:19.483Z,6.40
2019-01-06T14:07:09.050Z,5.90
2019-01-06T14:10:01.444Z,4.67
2019-01-06T14:12:43.598Z,4.23
2019-01-06T14:15:30.483Z,4.00
2019-01-06T14:18:21.522Z,4.63
2019-01-06T14:21:22.062Z,4.93
2019-01-06T14:24:10.398Z,5.10
2019-01-06T14:26:57.604Z,5.57
2019-01-06T14:29:51.874Z,5.47
2019-01-06T14:32:49.202Z,5.07
2019-01-06T14:35:46.510Z,4.80
2019-01-06T14:38:28.152Z,4.27
2019-01-06T14:41:34.770Z,5.33
2019-01-06T14:44:30.360Z,4.13
2019-01-06T14:47:28.726Z,4.20
2019-01-06T14:50:20.029Z,5.70
2019-01-06T14:53:07.575Z,4.73
2019-01-06T14:55:52.061Z,4.43
2019-01-06T14:58:46.085Z,6.53
2019-01-06T15:01:39.718Z,9.27
2019-01-06T15:04:26.954Z,8.30
2019-01-06T15:07:18.265Z,7.37
2019-01-06T15:10:12.454Z,7.03
2019-01-06T15:12:59.494Z,6.20
2019-01-06T15:16:03.002Z,4.63
2019-01-06T15:18:54.333Z,4.97
2019-01-06T15:21:41.470Z,5.43
2019-01-06T15:24:37.426Z,6.30
2019-01-06T15:27:21.763Z,6.47
2019-01-06T15:30:08.863Z,5.00
2019-01-06T15:32:56.009Z,5.40
2019-01-06T15:35:52.845Z,5.77
2019-01-06T15:38:32.497Z,6.37
2019-01-06T15:41:26.833Z,6.30
2019-01-06T15:44:14.033Z,6.43
2019-01-06T15:47:01.097Z,5.57
2019-01-06T15:49:57.797Z,6.40
2019-01-06T15:52:47.069Z,6.03
2019-01-06T15:55:35.511Z,6.90
2019-01-06T15:58:42.148Z,4.20
2019-01-06T16:01:36.577Z,5.03
2019-01-06T16:04:27.649Z,4.80
2019-01-06T16:07:25.844Z,5.33
2019-01-06T16:10:12.637Z,5.63
2019-01-06T16:13:13.041Z,5.17
2019-01-06T16:16:11.200Z,5.20
2019-01-06T16:18:59.480Z,4.93
2019-01-06T16:21:50.828Z,5.17
2019-01-06T16:24:39.176Z,5.17
2019-01-06T16:27:25.984Z,5.20
2019-01-06T16:30:16.839Z,5.40
2019-01-06T16:33:07.132Z,4.57
2019-01-06T16:36:07.840Z,4.67
2019-01-06T16:39:00.840Z,6.80
2019-01-06T16:41:47.828Z,9.43
2019-01-06T16:44:35.024Z,8.77
2019-01-06T16:47:22.408Z,8.57
2019-01-06T16:50:09.440Z,10.00
2019-01-06T16:53:07.020Z,6.87
2019-01-06T16:55:53.736Z,6.30
2019-01-06T16:58:45.095Z,7.83
2019-01-06T17:01:32.336Z,7.50
2019-01-06T17:04:20.916Z,6.93
2019-01-06T17:07:08.059Z,7.40
2019-01-06T17:10:14.661Z,7.27
2019-01-06T17:13:01.592Z,10.23
2019-01-06T17:15:52.694Z,12.20
2019-01-06T17:18:39.796Z,8.03
2019-01-06T17:21:28.095Z,7.63
2019-01-06T17:24:15.087Z,6.87
2019-01-06T17:27:02.007Z,7.10
2019-01-06T17:29:49.143Z,6.20
2019-01-06T17:32:36.259Z,5.60
2019-01-06T17:35:24.607Z,5.00
2019-01-06T17:38:16.522Z,4.93
2019-01-06T17:41:04.807Z,5.20
2019-01-06T17:43:51.743Z,6.93
2019-01-06T17:46:44.863Z,5.23
2019-01-06T17:49:31.963Z,5.10
2019-01-06T17:52:23.130Z,5.37
2019-01-06T17:55:24.679Z,5.17
2019-01-06T17:58:11.335Z,6.37
2019-01-06T18:00:51.959Z,5.33
2019-01-06T18:03:38.763Z,5.90
2019-01-06T18:06:38.919Z,5.60
2019-01-06T18:09:30.195Z,5.27
2019-01-06T18:12:24.263Z,5.77
2019-01-06T18:15:18.398Z,6.30
2019-01-06T18:18:05.514Z,5.57
2019-01-06T18:21:05.914Z,5.37
2019-01-06T18:23:54.218Z,5.87
2019-01-06T18:26:41.305Z,6.17
2019-01-06T18:29:29.590Z,5.43
2019-01-06T18:32:33.558Z,5.70
2019-01-06T18:35:21.845Z,6.10
2019-01-06T18:38:22.146Z,6.30
2019-01-06T18:41:09.950Z,6.53
2019-01-06T18:44:13.350Z,7.03
2019-01-06T18:47:05.037Z,7.10
2019-01-06T18:49:53.406Z,7.70
2019-01-06T18:52:41.715Z,17.50
2019-01-06T18:55:33.982Z,11.47
2019-01-06T18:58:40.430Z,14.17
2019-01-06T19:01:27.710Z,10.83
2019-01-06T19:04:14.986Z,7.43
2019-01-06T19:06:59.226Z,9.13
2019-01-06T19:09:46.130Z,9.10
2019-01-06T19:12:40.569Z,8.43
2019-01-06T19:15:30.117Z,9.70
2019-01-06T19:18:14.418Z,9.10
2019-01-06T19:21:14.060Z,8.93
2019-01-06T19:24:01.181Z,7.73
2019-01-06T19:27:07.882Z,12.57
2019-01-06T19:30:00.607Z,16.33
2019-01-06T19:33:04.087Z,17.93
2019-01-06T19:35:52.395Z,12.13
2019-01-06T19:38:39.143Z,14.40
2019-01-06T19:41:32.131Z,9.67
2019-01-06T19:44:19.172Z,9.37
2019-01-06T19:47:17.811Z,9.80
2019-01-06T19:50:09.255Z,13.67
2019-01-06T19:53:00.328Z,14.77
2019-01-06T19:56:07.219Z,15.50
2019-01-06T19:59:01.651Z,13.57
2019-01-06T20:02:07.983Z,10.07
2019-01-06T20:04:54.931Z,11.00
2019-01-06T20:07:52.087Z,9.93
2019-01-06T20:10:38.971Z,10.67
2019-01-06T20:13:25.723Z,7.63
2019-01-06T20:16:20.056Z,8.80
2019-01-06T20:19:06.927Z,8.90
2019-01-06T20:21:55.255Z,8.73
2019-01-06T20:24:47.168Z,7.27
2019-01-06T20:27:30.562Z,7.93
2019-01-06T20:30:17.811Z,9.63
2019-01-06T20:33:05.030Z,12.13
2019-01-06T20:35:52.394Z,12.90
2019-01-06T20:38:56.046Z,15.40
2019-01-06T20:44:41.283Z,22.53
2019-01-06T20:47:41.344Z,26.73
2019-01-06T20:50:41.811Z,23.07
2019-01-06T20:53:28.179Z,21.50
2019-01-06T20:56:28.455Z,21.23
2019-01-06T20:59:15.467Z,21.87
2019-01-06T21:02:03.865Z,24.40
2019-01-06T21:04:48.395Z,23.40
2019-01-06T21:07:46.368Z,27.00
2019-01-06T21:10:32.290Z,22.43
2019-01-06T21:13:19.354Z,22.07
2019-01-06T21:16:06.167Z,22.23
2019-01-06T21:18:54.507Z,24.80
2019-01-06T21:21:41.626Z,24.30
2019-01-06T21:24:38.885Z,20.43
2019-01-06T21:27:45.436Z,26.97
2019-01-06T21:30:32.504Z,22.50
2019-01-06T21:33:20.813Z,22.00
2019-01-06T21:36:07.746Z,18.23
2019-01-06T21:38:56.494Z,20.40
2019-01-06T21:41:43.676Z,18.27
2019-01-06T21:44:32.015Z,19.87
2019-01-06T21:47:26.335Z,17.87
2019-01-06T21:50:04.903Z,19.90
2019-01-06T21:52:53.282Z,20.53
2019-01-06T21:55:44.550Z,20.07
2019-01-06T21:58:31.470Z,20.33
2019-01-06T22:01:23.086Z,21.57
2019-01-06T22:04:17.522Z,23.27
2019-01-06T22:07:04.646Z,26.23
2019-01-06T22:10:05.307Z,32.70
2019-01-06T22:13:00.595Z,32.17
2019-01-06T22:15:47.546Z,27.13
2019-01-06T22:18:41.502Z,20.47
2019-01-06T22:21:28.675Z,14.33
2019-01-06T22:24:16.022Z,15.73
2019-01-06T22:27:03.059Z,16.30
2019-01-06T22:29:51.366Z,17.20
2019-01-06T22:32:38.425Z,24.27
2019-01-06T22:35:41.750Z,28.10
2019-01-06T22:38:28.841Z,22.60
2019-01-06T22:41:15.661Z,22.17
2019-01-06T22:44:01.569Z,38.77
2019-01-06T22:46:45.609Z,34.70
2019-01-06T22:49:36.665Z,22.63
2019-01-06T22:52:25.089Z,64.67
2019-01-06T22:55:16.487Z,60.57
2019-01-06T22:58:03.452Z,32.90
2019-01-06T23:01:04.093Z,69.87
2019-01-06T23:03:52.504Z,40.97
2019-01-06T23:06:39.625Z,34.37
2019-01-06T23:09:33.570Z,36.70
2019-01-06T23:12:20.546Z,46.83
2019-01-06T23:15:07.716Z,26.97
2019-01-06T23:18:01.890Z,19.77
2019-01-06T23:20:50.228Z,18.37
2019-01-06T23:23:50.482Z,14.27
2019-01-06T23:26:42.365Z,15.90
2019-01-06T23:29:29.416Z,13.10
2019-01-06T23:32:16.301Z,98.50
2019-01-06T23:35:10.676Z,51.67
2019-01-06T23:38:04.905Z,34.10
2019-01-06T23:40:51.948Z,16.20
2019-01-06T23:43:38.324Z,12.83
2019-01-06T23:46:38.816Z,11.10
2019-01-06T23:49:27.200Z,16.37
2019-01-06T23:52:14.212Z,15.67
2019-01-06T23:55:02.509Z,27.57
2019-01-06T23:57:49.516Z,23.13
